sensor_id;sensor_type;location;lat;lon;timestamp;P1;durP1;ratioP1;P2;durP2;ratioP2
9997;SDS011;5038;53.064;8.624;2024-03-02T00:01:12;25.20;;;22.90;;
9997;SDS011;5038;53.064;8.624;2024-03-02T00:03:41;25.60;;;23.20;;
9997;SDS011;5038;53.064;8.624;2024-03-02T00:06:11;24.17;;;22.07;;
9997;SDS011;5038;53.064;8.624;2024-03-02T00:08:40;23.67;;;21.47;;
9997;SDS011;5038;53.064;8.624;2024-03-02T00:11:08;23.63;;;21.53;;
9997;SDS011;5038;53.064;8.624;2024-03-02T00:13:38;23.37;;;21.37;;
9997;SDS011;5038;53.064;8.624;2024-03-02T00:16:07;24.37;;;22.07;;
9997;SDS011;5038;53.064;8.624;2024-03-02T00:18:35;24.60;;;22.40;;
9997;SDS011;5038;53.064;8.624;2024-03-02T00:21:05;25.73;;;23.23;;
9997;SDS011;5038;53.064;8.624;2024-03-02T00:23:37;26.30;;;23.90;;
9997;SDS011;5038;53.064;8.624;2024-03-02T00:26:06;24.37;;;22.17;;
9997;SDS011;5038;53.064;8.624;2024-03-02T00:28:35;25.50;;;23.20;;
9997;SDS011;5038;53.064;8.624;2024-03-02T00:31:05;27.20;;;24.60;;
9997;SDS011;5038;53.064;8.624;2024-03-02T00:33:35;24.23;;;21.80;;
9997;SDS011;5038;53.064;8.624;2024-03-02T00:36:07;25.07;;;22.57;;
9997;SDS011;5038;53.064;8.624;2024-03-02T00:38:41;25.20;;;23.07;;
9997;SDS011;5038;53.064;8.624;2024-03-02T00:41:18;24.43;;;22.23;;
9997;SDS011;5038;53.064;8.624;2024-03-02T00:43:56;25.20;;;22.77;;
9997;SDS011;5038;53.064;8.624;2024-03-02T00:46:27;25.33;;;22.83;;
9997;SDS011;5038;53.064;8.624;2024-03-02T00:48:58;23.40;;;21.30;;
9997;SDS011;5038;53.064;8.624;2024-03-02T00:51:27;25.17;;;22.93;;
9997;SDS011;5038;53.064;8.624;2024-03-02T00:53:59;24.00;;;21.90;;
9997;SDS011;5038;53.064;8.624;2024-03-02T00:56:31;24.27;;;22.17;;
9997;SDS011;5038;53.064;8.624;2024-03-02T00:59:01;25.80;;;23.43;;
9997;SDS011;5038;53.064;8.624;2024-03-02T01:01:30;21.83;;;19.90;;
9997;SDS011;5038;53.064;8.624;2024-03-02T01:03:58;24.70;;;22.30;;
9997;SDS011;5038;53.064;8.624;2024-03-02T01:06:27;23.43;;;21.23;;
9997;SDS011;5038;53.064;8.624;2024-03-02T01:08:55;26.48;;;24.02;;
9997;SDS011;5038;53.064;8.624;2024-03-02T01:11:25;25.80;;;23.33;;
9997;SDS011;5038;53.064;8.624;2024-03-02T01:13:54;24.47;;;22.30;;
9997;SDS011;5038;53.064;8.624;2024-03-02T01:16:22;24.80;;;22.60;;
9997;SDS011;5038;53.064;8.624;2024-03-02T01:18:51;23.40;;;21.20;;
9997;SDS011;5038;53.064;8.624;2024-03-02T01:21:19;25.07;;;22.70;;
9997;SDS011;5038;53.064;8.624;2024-03-02T01:23:48;25.10;;;22.70;;
9997;SDS011;5038;53.064;8.624;2024-03-02T01:26:16;23.70;;;21.50;;
9997;SDS011;5038;53.064;8.624;2024-03-02T01:28:46;22.83;;;20.73;;
9997;SDS011;5038;53.064;8.624;2024-03-02T01:31:15;23.63;;;21.23;;
9997;SDS011;5038;53.064;8.624;2024-03-02T01:33:43;20.97;;;18.87;;
9997;SDS011;5038;53.064;8.624;2024-03-02T01:36:12;21.70;;;19.80;;
9997;SDS011;5038;53.064;8.624;2024-03-02T01:38:40;22.57;;;20.37;;
9997;SDS011;5038;53.064;8.624;2024-03-02T01:41:08;22.00;;;20.00;;
9997;SDS011;5038;53.064;8.624;2024-03-02T01:43:38;21.97;;;19.87;;
9997;SDS011;5038;53.064;8.624;2024-03-02T01:46:09;23.03;;;20.80;;
9997;SDS011;5038;53.064;8.624;2024-03-02T01:48:37;21.90;;;19.50;;
9997;SDS011;5038;53.064;8.624;2024-03-02T01:51:06;20.90;;;18.90;;
9997;SDS011;5038;53.064;8.624;2024-03-02T01:53:34;20.83;;;18.73;;
9997;SDS011;5038;53.064;8.624;2024-03-02T01:56:03;23.13;;;20.93;;
9997;SDS011;5038;53.064;8.624;2024-03-02T01:58:31;21.70;;;19.60;;
9997;SDS011;5038;53.064;8.624;2024-03-02T02:01:00;20.33;;;18.33;;
9997;SDS011;5038;53.064;8.624;2024-03-02T02:03:30;20.70;;;18.70;;
9997;SDS011;5038;53.064;8.624;2024-03-02T02:05:58;21.13;;;18.93;;
9997;SDS011;5038;53.064;8.624;2024-03-02T02:08:27;19.57;;;17.63;;
9997;SDS011;5038;53.064;8.624;2024-03-02T02:10:55;19.13;;;17.43;;
9997;SDS011;5038;53.064;8.624;2024-03-02T02:13:24;19.07;;;17.17;;
9997;SDS011;5038;53.064;8.624;2024-03-02T02:15:52;19.90;;;18.10;;
9997;SDS011;5038;53.064;8.624;2024-03-02T02:18:21;19.00;;;17.13;;
9997;SDS011;5038;53.064;8.624;2024-03-02T02:20:51;19.20;;;17.40;;
9997;SDS011;5038;53.064;8.624;2024-03-02T02:23:21;20.00;;;18.00;;
9997;SDS011;5038;53.064;8.624;2024-03-02T02:25:49;20.03;;;18.00;;
9997;SDS011;5038;53.064;8.624;2024-03-02T02:28:17;19.53;;;17.43;;
9997;SDS011;5038;53.064;8.624;2024-03-02T02:30:46;20.23;;;18.07;;
9997;SDS011;5038;53.064;8.624;2024-03-02T02:33:14;20.03;;;17.97;;
9997;SDS011;5038;53.064;8.624;2024-03-02T02:35:43;18.90;;;17.07;;
9997;SDS011;5038;53.064;8.624;2024-03-02T02:38:11;19.27;;;17.27;;
9997;SDS011;5038;53.064;8.624;2024-03-02T02:40:40;19.73;;;17.83;;
9997;SDS011;5038;53.064;8.624;2024-03-02T02:43:08;17.80;;;16.07;;
9997;SDS011;5038;53.064;8.624;2024-03-02T02:45:37;20.07;;;18.17;;
9997;SDS011;5038;53.064;8.624;2024-03-02T02:48:05;18.10;;;16.27;;
9997;SDS011;5038;53.064;8.624;2024-03-02T02:50:34;17.67;;;15.93;;
9997;SDS011;5038;53.064;8.624;2024-03-02T02:53:03;19.70;;;17.70;;
9997;SDS011;5038;53.064;8.624;2024-03-02T02:55:31;15.97;;;14.40;;
9997;SDS011;5038;53.064;8.624;2024-03-02T02:58:01;18.17;;;16.47;;
9997;SDS011;5038;53.064;8.624;2024-03-02T03:00:29;18.27;;;16.43;;
9997;SDS011;5038;53.064;8.624;2024-03-02T03:02:58;18.53;;;16.73;;
9997;SDS011;5038;53.064;8.624;2024-03-02T03:05:26;23.07;;;20.87;;
9997;SDS011;5038;53.064;8.624;2024-03-02T03:07:54;20.03;;;18.03;;
9997;SDS011;5038;53.064;8.624;2024-03-02T03:10:23;18.47;;;16.57;;
9997;SDS011;5038;53.064;8.624;2024-03-02T03:12:53;19.30;;;17.20;;
9997;SDS011;5038;53.064;8.624;2024-03-02T03:15:24;18.87;;;17.07;;
9997;SDS011;5038;53.064;8.624;2024-03-02T03:17:53;21.37;;;19.23;;
9997;SDS011;5038;53.064;8.624;2024-03-02T03:20:21;20.57;;;18.27;;
9997;SDS011;5038;53.064;8.624;2024-03-02T03:22:51;19.00;;;17.10;;
9997;SDS011;5038;53.064;8.624;2024-03-02T03:25:19;17.10;;;15.43;;
9997;SDS011;5038;53.064;8.624;2024-03-02T03:27:48;19.60;;;17.50;;
9997;SDS011;5038;53.064;8.624;2024-03-02T03:30:17;19.17;;;17.30;;
9997;SDS011;5038;53.064;8.624;2024-03-02T03:32:47;18.40;;;16.60;;
9997;SDS011;5038;53.064;8.624;2024-03-02T03:35:15;18.97;;;16.97;;
9997;SDS011;5038;53.064;8.624;2024-03-02T03:37:45;19.50;;;17.63;;
9997;SDS011;5038;53.064;8.624;2024-03-02T03:40:13;19.83;;;18.03;;
9997;SDS011;5038;53.064;8.624;2024-03-02T03:42:42;18.67;;;16.87;;
9997;SDS011;5038;53.064;8.624;2024-03-02T03:45:11;15.73;;;14.13;;
9997;SDS011;5038;53.064;8.624;2024-03-02T03:47:39;19.33;;;17.10;;
9997;SDS011;5038;53.064;8.624;2024-03-02T03:50:09;19.13;;;17.10;;
9997;SDS011;5038;53.064;8.624;2024-03-02T03:52:38;18.43;;;16.63;;
9997;SDS011;5038;53.064;8.624;2024-03-02T03:55:07;19.00;;;17.00;;
9997;SDS011;5038;53.064;8.624;2024-03-02T03:57:36;18.83;;;16.93;;
9997;SDS011;5038;53.064;8.624;2024-03-02T04:00:05;20.53;;;18.60;;
9997;SDS011;5038;53.064;8.624;2024-03-02T04:02:39;21.23;;;19.23;;
9997;SDS011;5038;53.064;8.624;2024-03-02T04:05:09;20.67;;;18.60;;
9997;SDS011;5038;53.064;8.624;2024-03-02T04:07:38;22.40;;;20.20;;
9997;SDS011;5038;53.064;8.624;2024-03-02T04:10:08;22.03;;;19.83;;
9997;SDS011;5038;53.064;8.624;2024-03-02T04:12:37;21.83;;;19.63;;
9997;SDS011;5038;53.064;8.624;2024-03-02T04:15:06;23.33;;;20.93;;
9997;SDS011;5038;53.064;8.624;2024-03-02T04:17:35;22.73;;;20.17;;
9997;SDS011;5038;53.064;8.624;2024-03-02T04:20:04;20.40;;;18.30;;
9997;SDS011;5038;53.064;8.624;2024-03-02T04:22:34;22.10;;;19.90;;
9997;SDS011;5038;53.064;8.624;2024-03-02T04:25:03;21.33;;;19.23;;
9997;SDS011;5038;53.064;8.624;2024-03-02T04:27:34;22.33;;;20.07;;
9997;SDS011;5038;53.064;8.624;2024-03-02T04:30:03;22.83;;;20.40;;
9997;SDS011;5038;53.064;8.624;2024-03-02T04:32:33;22.63;;;19.77;;
9997;SDS011;5038;53.064;8.624;2024-03-02T04:35:03;21.43;;;19.33;;
9997;SDS011;5038;53.064;8.624;2024-03-02T04:37:33;22.10;;;20.00;;
9997;SDS011;5038;53.064;8.624;2024-03-02T04:40:04;21.10;;;19.00;;
9997;SDS011;5038;53.064;8.624;2024-03-02T04:42:35;22.30;;;20.10;;
9997;SDS011;5038;53.064;8.624;2024-03-02T04:45:04;22.03;;;19.77;;
9997;SDS011;5038;53.064;8.624;2024-03-02T04:47:33;21.77;;;19.77;;
9997;SDS011;5038;53.064;8.624;2024-03-02T04:50:02;21.50;;;19.10;;
9997;SDS011;5038;53.064;8.624;2024-03-02T04:52:30;22.20;;;20.00;;
9997;SDS011;5038;53.064;8.624;2024-03-02T04:55:00;22.37;;;19.97;;
9997;SDS011;5038;53.064;8.624;2024-03-02T04:57:46;22.53;;;20.33;;
9997;SDS011;5038;53.064;8.624;2024-03-02T05:00:15;19.57;;;17.67;;
9997;SDS011;5038;53.064;8.624;2024-03-02T05:02:44;23.53;;;19.47;;
9997;SDS011;5038;53.064;8.624;2024-03-02T05:05:12;20.10;;;18.00;;
9997;SDS011;5038;53.064;8.624;2024-03-02T05:07:41;21.07;;;19.13;;
9997;SDS011;5038;53.064;8.624;2024-03-02T05:10:12;22.20;;;20.20;;
9997;SDS011;5038;53.064;8.624;2024-03-02T05:12:41;20.93;;;18.87;;
9997;SDS011;5038;53.064;8.624;2024-03-02T05:15:24;20.43;;;18.30;;
9997;SDS011;5038;53.064;8.624;2024-03-02T05:17:53;20.90;;;18.70;;
9997;SDS011;5038;53.064;8.624;2024-03-02T05:20:23;19.67;;;17.70;;
9997;SDS011;5038;53.064;8.624;2024-03-02T05:22:52;22.20;;;19.90;;
9997;SDS011;5038;53.064;8.624;2024-03-02T05:25:21;21.30;;;19.27;;
9997;SDS011;5038;53.064;8.624;2024-03-02T05:27:50;21.70;;;19.47;;
9997;SDS011;5038;53.064;8.624;2024-03-02T05:30:19;22.10;;;20.07;;
9997;SDS011;5038;53.064;8.624;2024-03-02T05:32:47;22.33;;;20.23;;
9997;SDS011;5038;53.064;8.624;2024-03-02T05:35:16;20.90;;;18.90;;
9997;SDS011;5038;53.064;8.624;2024-03-02T05:37:44;18.93;;;17.00;;
9997;SDS011;5038;53.064;8.624;2024-03-02T05:40:12;21.20;;;19.20;;
9997;SDS011;5038;53.064;8.624;2024-03-02T05:42:43;21.57;;;19.30;;
9997;SDS011;5038;53.064;8.624;2024-03-02T05:45:11;19.80;;;17.80;;
9997;SDS011;5038;53.064;8.624;2024-03-02T05:47:43;20.40;;;18.40;;
9997;SDS011;5038;53.064;8.624;2024-03-02T05:50:12;20.13;;;18.13;;
9997;SDS011;5038;53.064;8.624;2024-03-02T05:52:40;20.33;;;17.80;;
9997;SDS011;5038;53.064;8.624;2024-03-02T05:55:09;17.87;;;16.03;;
9997;SDS011;5038;53.064;8.624;2024-03-02T05:57:37;19.43;;;17.43;;
9997;SDS011;5038;53.064;8.624;2024-03-02T06:00:23;18.97;;;16.93;;
9997;SDS011;5038;53.064;8.624;2024-03-02T06:02:52;20.97;;;18.40;;
9997;SDS011;5038;53.064;8.624;2024-03-02T06:05:20;21.67;;;18.53;;
9997;SDS011;5038;53.064;8.624;2024-03-02T06:07:48;20.07;;;17.97;;
9997;SDS011;5038;53.064;8.624;2024-03-02T06:10:17;20.93;;;19.03;;
9997;SDS011;5038;53.064;8.624;2024-03-02T06:12:45;20.50;;;18.30;;
9997;SDS011;5038;53.064;8.624;2024-03-02T06:15:14;19.73;;;17.73;;
9997;SDS011;5038;53.064;8.624;2024-03-02T06:17:43;18.33;;;16.53;;
9997;SDS011;5038;53.064;8.624;2024-03-02T06:20:12;18.63;;;16.83;;
9997;SDS011;5038;53.064;8.624;2024-03-02T06:22:40;18.77;;;16.47;;
9997;SDS011;5038;53.064;8.624;2024-03-02T06:25:09;20.40;;;17.43;;
9997;SDS011;5038;53.064;8.624;2024-03-02T06:27:37;19.57;;;17.57;;
9997;SDS011;5038;53.064;8.624;2024-03-02T06:30:06;19.50;;;17.60;;
9997;SDS011;5038;53.064;8.624;2024-03-02T06:32:34;18.53;;;16.63;;
9997;SDS011;5038;53.064;8.624;2024-03-02T06:35:05;19.50;;;17.50;;
9997;SDS011;5038;53.064;8.624;2024-03-02T06:37:36;19.17;;;17.20;;
9997;SDS011;5038;53.064;8.624;2024-03-02T06:40:06;20.17;;;17.53;;
9997;SDS011;5038;53.064;8.624;2024-03-02T06:42:35;16.93;;;15.17;;
9997;SDS011;5038;53.064;8.624;2024-03-02T06:45:04;19.63;;;17.73;;
9997;SDS011;5038;53.064;8.624;2024-03-02T06:47:33;19.67;;;17.60;;
9997;SDS011;5038;53.064;8.624;2024-03-02T06:50:01;20.63;;;18.73;;
9997;SDS011;5038;53.064;8.624;2024-03-02T06:52:31;19.57;;;17.30;;
9997;SDS011;5038;53.064;8.624;2024-03-02T06:54:59;20.33;;;18.33;;
9997;SDS011;5038;53.064;8.624;2024-03-02T06:57:28;20.60;;;18.50;;
9997;SDS011;5038;53.064;8.624;2024-03-02T06:59:56;20.60;;;18.40;;
9997;SDS011;5038;53.064;8.624;2024-03-02T07:02:25;18.90;;;17.00;;
9997;SDS011;5038;53.064;8.624;2024-03-02T07:04:54;19.90;;;18.10;;
9997;SDS011;5038;53.064;8.624;2024-03-02T07:07:22;23.73;;;21.37;;
9997;SDS011;5038;53.064;8.624;2024-03-02T07:09:52;25.13;;;22.43;;
9997;SDS011;5038;53.064;8.624;2024-03-02T07:12:21;26.27;;;22.73;;
9997;SDS011;5038;53.064;8.624;2024-03-02T07:14:49;21.87;;;18.90;;
9997;SDS011;5038;53.064;8.624;2024-03-02T07:17:51;21.17;;;19.07;;
9997;SDS011;5038;53.064;8.624;2024-03-02T07:20:19;24.07;;;21.50;;
9997;SDS011;5038;53.064;8.624;2024-03-02T07:22:48;20.90;;;18.70;;
9997;SDS011;5038;53.064;8.624;2024-03-02T07:25:18;22.80;;;20.70;;
9997;SDS011;5038;53.064;8.624;2024-03-02T07:27:49;21.20;;;19.10;;
9997;SDS011;5038;53.064;8.624;2024-03-02T07:30:19;23.90;;;21.40;;
9997;SDS011;5038;53.064;8.624;2024-03-02T07:32:49;22.40;;;20.10;;
9997;SDS011;5038;53.064;8.624;2024-03-02T07:35:18;24.50;;;22.20;;
9997;SDS011;5038;53.064;8.624;2024-03-02T07:37:48;24.00;;;21.50;;
9997;SDS011;5038;53.064;8.624;2024-03-02T07:40:18;23.33;;;21.03;;
9997;SDS011;5038;53.064;8.624;2024-03-02T07:42:46;25.87;;;23.23;;
9997;SDS011;5038;53.064;8.624;2024-03-02T07:45:15;30.20;;;27.10;;
9997;SDS011;5038;53.064;8.624;2024-03-02T07:47:43;25.80;;;23.37;;
9997;SDS011;5038;53.064;8.624;2024-03-02T07:50:12;24.20;;;21.80;;
9997;SDS011;5038;53.064;8.624;2024-03-02T07:52:40;23.53;;;21.43;;
9997;SDS011;5038;53.064;8.624;2024-03-02T07:55:09;23.60;;;21.27;;
9997;SDS011;5038;53.064;8.624;2024-03-02T07:57:38;23.53;;;20.77;;
9997;SDS011;5038;53.064;8.624;2024-03-02T08:00:08;29.50;;;26.30;;
9997;SDS011;5038;53.064;8.624;2024-03-02T08:02:40;25.10;;;22.57;;
9997;SDS011;5038;53.064;8.624;2024-03-02T08:05:09;25.70;;;23.40;;
9997;SDS011;5038;53.064;8.624;2024-03-02T08:07:37;25.50;;;23.03;;
9997;SDS011;5038;53.064;8.624;2024-03-02T08:10:06;27.73;;;25.03;;
9997;SDS011;5038;53.064;8.624;2024-03-02T08:12:35;24.27;;;22.00;;
9997;SDS011;5038;53.064;8.624;2024-03-02T08:15:05;24.50;;;22.30;;
9997;SDS011;5038;53.064;8.624;2024-03-02T08:17:34;22.83;;;20.73;;
9997;SDS011;5038;53.064;8.624;2024-03-02T08:20:04;30.47;;;27.37;;
9997;SDS011;5038;53.064;8.624;2024-03-02T08:22:34;29.20;;;26.20;;
9997;SDS011;5038;53.064;8.624;2024-03-02T08:25:03;27.13;;;24.70;;
9997;SDS011;5038;53.064;8.624;2024-03-02T08:27:34;25.33;;;22.93;;
9997;SDS011;5038;53.064;8.624;2024-03-02T08:30:05;25.07;;;22.77;;
9997;SDS011;5038;53.064;8.624;2024-03-02T08:32:40;24.60;;;22.40;;
9997;SDS011;5038;53.064;8.624;2024-03-02T08:35:18;24.40;;;22.10;;
9997;SDS011;5038;53.064;8.624;2024-03-02T08:38:14;24.50;;;22.37;;
9997;SDS011;5038;53.064;8.624;2024-03-02T08:40:42;24.70;;;22.50;;
9997;SDS011;5038;53.064;8.624;2024-03-02T08:43:11;24.57;;;22.17;;
9997;SDS011;5038;53.064;8.624;2024-03-02T08:45:41;25.10;;;22.83;;
9997;SDS011;5038;53.064;8.624;2024-03-02T08:48:10;25.03;;;22.93;;
9997;SDS011;5038;53.064;8.624;2024-03-02T08:50:38;24.37;;;22.07;;
9997;SDS011;5038;53.064;8.624;2024-03-02T08:53:07;29.37;;;26.47;;
9997;SDS011;5038;53.064;8.624;2024-03-02T08:55:35;25.30;;;22.80;;
9997;SDS011;5038;53.064;8.624;2024-03-02T08:58:03;25.23;;;22.93;;
9997;SDS011;5038;53.064;8.624;2024-03-02T09:00:32;30.63;;;27.53;;
9997;SDS011;5038;53.064;8.624;2024-03-02T09:03:02;23.43;;;21.20;;
9997;SDS011;5038;53.064;8.624;2024-03-02T09:05:31;21.70;;;19.83;;
9997;SDS011;5038;53.064;8.624;2024-03-02T09:08:00;21.37;;;19.40;;
9997;SDS011;5038;53.064;8.624;2024-03-02T09:10:30;21.93;;;19.90;;
9997;SDS011;5038;53.064;8.624;2024-03-02T09:12:58;21.43;;;19.47;;
9997;SDS011;5038;53.064;8.624;2024-03-02T09:15:27;21.77;;;19.77;;
9997;SDS011;5038;53.064;8.624;2024-03-02T09:17:56;21.90;;;19.90;;
9997;SDS011;5038;53.064;8.624;2024-03-02T09:20:26;21.77;;;19.60;;
9997;SDS011;5038;53.064;8.624;2024-03-02T09:22:55;20.00;;;18.20;;
9997;SDS011;5038;53.064;8.624;2024-03-02T09:25:23;20.20;;;18.50;;
9997;SDS011;5038;53.064;8.624;2024-03-02T09:27:52;19.07;;;17.17;;
9997;SDS011;5038;53.064;8.624;2024-03-02T09:30:20;18.93;;;17.13;;
9997;SDS011;5038;53.064;8.624;2024-03-02T09:32:49;22.73;;;20.63;;
9997;SDS011;5038;53.064;8.624;2024-03-02T09:35:17;18.63;;;16.83;;
9997;SDS011;5038;53.064;8.624;2024-03-02T09:37:47;17.83;;;16.13;;
9997;SDS011;5038;53.064;8.624;2024-03-02T09:40:15;17.27;;;15.77;;
9997;SDS011;5038;53.064;8.624;2024-03-02T09:42:44;17.73;;;16.17;;
9997;SDS011;5038;53.064;8.624;2024-03-02T09:45:19;16.80;;;15.20;;
9997;SDS011;5038;53.064;8.624;2024-03-02T09:47:51;15.47;;;13.97;;
9997;SDS011;5038;53.064;8.624;2024-03-02T09:50:19;14.77;;;13.43;;
9997;SDS011;5038;53.064;8.624;2024-03-02T09:52:49;13.00;;;11.70;;
9997;SDS011;5038;53.064;8.624;2024-03-02T09:55:18;14.03;;;12.63;;
9997;SDS011;5038;53.064;8.624;2024-03-02T09:57:46;13.50;;;12.20;;
9997;SDS011;5038;53.064;8.624;2024-03-02T10:00:16;12.70;;;11.60;;
9997;SDS011;5038;53.064;8.624;2024-03-02T10:02:46;12.27;;;11.17;;
9997;SDS011;5038;53.064;8.624;2024-03-02T10:05:25;10.60;;;9.60;;
9997;SDS011;5038;53.064;8.624;2024-03-02T10:08:02;11.50;;;10.40;;
9997;SDS011;5038;53.064;8.624;2024-03-02T10:10:36;12.80;;;11.63;;
9997;SDS011;5038;53.064;8.624;2024-03-02T10:13:08;11.50;;;10.40;;
9997;SDS011;5038;53.064;8.624;2024-03-02T10:15:38;11.43;;;10.37;;
9997;SDS011;5038;53.064;8.624;2024-03-02T10:18:08;12.07;;;10.97;;
9997;SDS011;5038;53.064;8.624;2024-03-02T10:20:38;10.60;;;9.60;;
9997;SDS011;5038;53.064;8.624;2024-03-02T10:23:13;11.40;;;10.30;;
9997;SDS011;5038;53.064;8.624;2024-03-02T10:25:43;15.10;;;13.50;;
9997;SDS011;5038;53.064;8.624;2024-03-02T10:28:23;11.27;;;10.27;;
9997;SDS011;5038;53.064;8.624;2024-03-02T10:30:54;12.37;;;10.77;;
9997;SDS011;5038;53.064;8.624;2024-03-02T10:33:23;10.53;;;9.53;;
9997;SDS011;5038;53.064;8.624;2024-03-02T10:35:52;10.83;;;9.90;;
9997;SDS011;5038;53.064;8.624;2024-03-02T10:38:22;11.80;;;10.60;;
9997;SDS011;5038;53.064;8.624;2024-03-02T10:40:50;11.50;;;10.23;;
9997;SDS011;5038;53.064;8.624;2024-03-02T10:43:19;11.90;;;10.70;;
9997;SDS011;5038;53.064;8.624;2024-03-02T10:45:49;11.80;;;10.57;;
9997;SDS011;5038;53.064;8.624;2024-03-02T10:48:18;12.80;;;11.53;;
9997;SDS011;5038;53.064;8.624;2024-03-02T10:50:48;10.67;;;9.67;;
9997;SDS011;5038;53.064;8.624;2024-03-02T10:53:17;12.03;;;10.80;;
9997;SDS011;5038;53.064;8.624;2024-03-02T10:55:47;9.33;;;8.50;;
9997;SDS011;5038;53.064;8.624;2024-03-02T10:58:31;10.43;;;9.37;;
9997;SDS011;5038;53.064;8.624;2024-03-02T11:01:01;11.20;;;10.10;;
9997;SDS011;5038;53.064;8.624;2024-03-02T11:03:35;10.40;;;9.40;;
9997;SDS011;5038;53.064;8.624;2024-03-02T11:06:05;9.57;;;8.57;;
9997;SDS011;5038;53.064;8.624;2024-03-02T11:08:37;10.60;;;9.50;;
9997;SDS011;5038;53.064;8.624;2024-03-02T11:11:11;10.67;;;9.67;;
9997;SDS011;5038;53.064;8.624;2024-03-02T11:13:45;10.53;;;9.53;;
9997;SDS011;5038;53.064;8.624;2024-03-02T11:16:19;9.83;;;8.73;;
9997;SDS011;5038;53.064;8.624;2024-03-02T11:18:56;10.43;;;9.23;;
9997;SDS011;5038;53.064;8.624;2024-03-02T11:21:25;9.27;;;8.20;;
9997;SDS011;5038;53.064;8.624;2024-03-02T11:23:54;9.63;;;8.73;;
9997;SDS011;5038;53.064;8.624;2024-03-02T11:26:24;8.80;;;8.00;;
9997;SDS011;5038;53.064;8.624;2024-03-02T11:28:55;10.30;;;9.40;;
9997;SDS011;5038;53.064;8.624;2024-03-02T11:34:30;11.33;;;10.23;;
9997;SDS011;5038;53.064;8.624;2024-03-02T11:36:59;10.27;;;9.27;;
9997;SDS011;5038;53.064;8.624;2024-03-02T11:39:30;10.60;;;9.20;;
9997;SDS011;5038;53.064;8.624;2024-03-02T11:42:00;10.00;;;9.00;;
9997;SDS011;5038;53.064;8.624;2024-03-02T11:44:29;9.17;;;8.27;;
9997;SDS011;5038;53.064;8.624;2024-03-02T11:47:02;10.40;;;9.40;;
9997;SDS011;5038;53.064;8.624;2024-03-02T11:49:37;9.33;;;8.53;;
9997;SDS011;5038;53.064;8.624;2024-03-02T11:52:06;9.67;;;8.77;;
9997;SDS011;5038;53.064;8.624;2024-03-02T11:54:36;10.90;;;9.90;;
9997;SDS011;5038;53.064;8.624;2024-03-02T11:57:07;11.50;;;10.30;;
9997;SDS011;5038;53.064;8.624;2024-03-02T11:59:36;9.87;;;8.90;;
9997;SDS011;5038;53.064;8.624;2024-03-02T12:02:05;10.10;;;9.20;;
9997;SDS011;5038;53.064;8.624;2024-03-02T12:04:33;10.07;;;9.07;;
9997;SDS011;5038;53.064;8.624;2024-03-02T12:07:03;8.57;;;7.87;;
9997;SDS011;5038;53.064;8.624;2024-03-02T12:09:32;8.40;;;7.70;;
9997;SDS011;5038;53.064;8.624;2024-03-02T12:12:01;8.50;;;7.70;;
9997;SDS011;5038;53.064;8.624;2024-03-02T12:14:35;9.30;;;8.40;;
9997;SDS011;5038;53.064;8.624;2024-03-02T12:17:05;9.07;;;8.27;;
9997;SDS011;5038;53.064;8.624;2024-03-02T12:19:34;10.47;;;9.43;;
9997;SDS011;5038;53.064;8.624;2024-03-02T12:22:03;10.43;;;9.43;;
9997;SDS011;5038;53.064;8.624;2024-03-02T12:24:33;8.73;;;7.93;;
9997;SDS011;5038;53.064;8.624;2024-03-02T12:27:04;9.90;;;9.00;;
9997;SDS011;5038;53.064;8.624;2024-03-02T12:29:34;9.17;;;8.27;;
9997;SDS011;5038;53.064;8.624;2024-03-02T12:32:03;11.30;;;10.20;;
9997;SDS011;5038;53.064;8.624;2024-03-02T12:34:32;10.00;;;9.10;;
9997;SDS011;5038;53.064;8.624;2024-03-02T12:37:01;9.73;;;8.83;;
9997;SDS011;5038;53.064;8.624;2024-03-02T12:39:31;9.20;;;8.40;;
9997;SDS011;5038;53.064;8.624;2024-03-02T12:42:02;9.07;;;8.27;;
9997;SDS011;5038;53.064;8.624;2024-03-02T12:44:31;9.13;;;8.33;;
9997;SDS011;5038;53.064;8.624;2024-03-02T12:47:01;9.17;;;8.27;;
9997;SDS011;5038;53.064;8.624;2024-03-02T12:49:29;9.43;;;8.63;;
9997;SDS011;5038;53.064;8.624;2024-03-02T12:51:58;9.63;;;8.77;;
9997;SDS011;5038;53.064;8.624;2024-03-02T12:54:27;9.60;;;8.60;;
9997;SDS011;5038;53.064;8.624;2024-03-02T12:56:56;12.83;;;11.53;;
9997;SDS011;5038;53.064;8.624;2024-03-02T12:59:24;51.77;;;47.97;;
9997;SDS011;5038;53.064;8.624;2024-03-02T13:01:54;15.20;;;13.97;;
9997;SDS011;5038;53.064;8.624;2024-03-02T13:04:26;12.20;;;11.10;;
9997;SDS011;5038;53.064;8.624;2024-03-02T13:06:55;9.40;;;8.60;;
9997;SDS011;5038;53.064;8.624;2024-03-02T13:09:24;10.30;;;9.40;;
9997;SDS011;5038;53.064;8.624;2024-03-02T13:11:54;11.57;;;9.90;;
9997;SDS011;5038;53.064;8.624;2024-03-02T13:14:23;11.97;;;9.97;;
9997;SDS011;5038;53.064;8.624;2024-03-02T13:16:52;15.00;;;13.50;;
9997;SDS011;5038;53.064;8.624;2024-03-02T13:19:21;11.03;;;9.93;;
9997;SDS011;5038;53.064;8.624;2024-03-02T13:21:51;11.20;;;10.10;;
9997;SDS011;5038;53.064;8.624;2024-03-02T13:24:19;14.37;;;13.07;;
9997;SDS011;5038;53.064;8.624;2024-03-02T13:26:48;11.87;;;10.67;;
9997;SDS011;5038;53.064;8.624;2024-03-02T13:29:18;10.57;;;9.47;;
9997;SDS011;5038;53.064;8.624;2024-03-02T13:31:47;9.77;;;8.77;;
9997;SDS011;5038;53.064;8.624;2024-03-02T13:34:16;10.57;;;9.67;;
9997;SDS011;5038;53.064;8.624;2024-03-02T13:36:44;11.00;;;7.97;;
9997;SDS011;5038;53.064;8.624;2024-03-02T13:39:14;9.67;;;8.77;;
9997;SDS011;5038;53.064;8.624;2024-03-02T13:41:43;10.00;;;9.10;;
9997;SDS011;5038;53.064;8.624;2024-03-02T13:44:19;9.93;;;9.03;;
9997;SDS011;5038;53.064;8.624;2024-03-02T13:46:48;10.33;;;9.43;;
9997;SDS011;5038;53.064;8.624;2024-03-02T13:49:18;11.00;;;9.90;;
9997;SDS011;5038;53.064;8.624;2024-03-02T13:51:46;10.27;;;9.20;;
9997;SDS011;5038;53.064;8.624;2024-03-02T13:54:16;9.67;;;8.77;;
9997;SDS011;5038;53.064;8.624;2024-03-02T13:56:45;10.13;;;9.20;;
9997;SDS011;5038;53.064;8.624;2024-03-02T13:59:14;9.97;;;9.07;;
9997;SDS011;5038;53.064;8.624;2024-03-02T14:01:44;8.93;;;8.13;;
9997;SDS011;5038;53.064;8.624;2024-03-02T14:04:12;8.50;;;7.70;;
9997;SDS011;5038;53.064;8.624;2024-03-02T14:06:42;9.77;;;8.83;;
9997;SDS011;5038;53.064;8.624;2024-03-02T14:09:10;9.20;;;7.90;;
9997;SDS011;5038;53.064;8.624;2024-03-02T14:11:40;9.23;;;8.40;;
9997;SDS011;5038;53.064;8.624;2024-03-02T14:14:09;14.33;;;9.50;;
9997;SDS011;5038;53.064;8.624;2024-03-02T14:16:37;9.23;;;8.00;;
9997;SDS011;5038;53.064;8.624;2024-03-02T14:19:06;9.57;;;8.60;;
9997;SDS011;5038;53.064;8.624;2024-03-02T14:21:36;9.97;;;8.90;;
9997;SDS011;5038;53.064;8.624;2024-03-02T14:24:04;9.37;;;8.57;;
9997;SDS011;5038;53.064;8.624;2024-03-02T14:26:33;9.43;;;8.53;;
9997;SDS011;5038;53.064;8.624;2024-03-02T14:29:04;8.67;;;7.87;;
9997;SDS011;5038;53.064;8.624;2024-03-02T14:31:33;8.63;;;7.90;;
9997;SDS011;5038;53.064;8.624;2024-03-02T14:34:02;9.23;;;7.57;;
9997;SDS011;5038;53.064;8.624;2024-03-02T14:36:30;8.27;;;7.47;;
9997;SDS011;5038;53.064;8.624;2024-03-02T14:39:00;8.60;;;7.80;;
9997;SDS011;5038;53.064;8.624;2024-03-02T14:41:30;8.67;;;7.83;;
9997;SDS011;5038;53.064;8.624;2024-03-02T14:43:59;8.30;;;7.50;;
9997;SDS011;5038;53.064;8.624;2024-03-02T14:46:28;9.27;;;8.40;;
9997;SDS011;5038;53.064;8.624;2024-03-02T14:48:57;8.27;;;7.47;;
9997;SDS011;5038;53.064;8.624;2024-03-02T14:51:26;8.10;;;7.40;;
9997;SDS011;5038;53.064;8.624;2024-03-02T14:53:56;7.87;;;6.97;;
9997;SDS011;5038;53.064;8.624;2024-03-02T14:56:25;9.20;;;8.30;;
9997;SDS011;5038;53.064;8.624;2024-03-02T14:58:53;8.90;;;8.10;;
9997;SDS011;5038;53.064;8.624;2024-03-02T15:01:21;9.07;;;8.27;;
9997;SDS011;5038;53.064;8.624;2024-03-02T15:03:52;9.13;;;8.33;;
9997;SDS011;5038;53.064;8.624;2024-03-02T15:06:21;8.37;;;7.63;;
9997;SDS011;5038;53.064;8.624;2024-03-02T15:08:50;7.93;;;7.13;;
9997;SDS011;5038;53.064;8.624;2024-03-02T15:11:20;7.10;;;6.23;;